sensor_id;sensor_type;location;lat;lon;timestamp;P1;durP1;ratioP1;P2;durP2;ratioP2
32186;SDS011;18686;53.084;8.872;2023-04-24T00:00:28;23.50;;;13.82;;
32186;SDS011;18686;53.084;8.872;2023-04-24T00:02:57;29.83;;;13.50;;
32186;SDS011;18686;53.084;8.872;2023-04-24T00:05:29;29.48;;;14.13;;
32186;SDS011;18686;53.084;8.872;2023-04-24T00:07:59;28.67;;;13.93;;
32186;SDS011;18686;53.084;8.872;2023-04-24T00:10:29;28.15;;;13.95;;
32186;SDS011;18686;53.084;8.872;2023-04-24T00:12:57;27.55;;;14.10;;
32186;SDS011;18686;53.084;8.872;2023-04-24T00:15:26;25.15;;;15.23;;
32186;SDS011;18686;53.084;8.872;2023-04-24T00:17:54;25.00;;;14.85;;
32186;SDS011;18686;53.084;8.872;2023-04-24T00:20:23;28.88;;;15.40;;
32186;SDS011;18686;53.084;8.872;2023-04-24T00:22:52;29.58;;;15.55;;
32186;SDS011;18686;53.084;8.872;2023-04-24T00:25:20;33.80;;;16.42;;
32186;SDS011;18686;53.084;8.872;2023-04-24T00:27:48;28.35;;;15.00;;
32186;SDS011;18686;53.084;8.872;2023-04-24T00:30:16;29.65;;;15.20;;
32186;SDS011;18686;53.084;8.872;2023-04-24T00:32:44;30.70;;;14.98;;
32186;SDS011;18686;53.084;8.872;2023-04-24T00:35:13;23.98;;;14.30;;
32186;SDS011;18686;53.084;8.872;2023-04-24T00:37:43;28.10;;;14.95;;
32186;SDS011;18686;53.084;8.872;2023-04-24T00:40:11;31.15;;;15.52;;
32186;SDS011;18686;53.084;8.872;2023-04-24T00:42:41;34.33;;;17.55;;
32186;SDS011;18686;53.084;8.872;2023-04-24T00:45:10;29.70;;;16.90;;
32186;SDS011;18686;53.084;8.872;2023-04-24T00:47:39;29.63;;;17.73;;
32186;SDS011;18686;53.084;8.872;2023-04-24T00:50:09;28.10;;;16.92;;
32186;SDS011;18686;53.084;8.872;2023-04-24T00:52:39;28.13;;;16.90;;
32186;SDS011;18686;53.084;8.872;2023-04-24T00:55:11;28.50;;;16.98;;
32186;SDS011;18686;53.084;8.872;2023-04-24T00:57:39;28.23;;;16.35;;
32186;SDS011;18686;53.084;8.872;2023-04-24T01:00:09;28.33;;;16.80;;
32186;SDS011;18686;53.084;8.872;2023-04-24T01:02:38;24.45;;;14.90;;
32186;SDS011;18686;53.084;8.872;2023-04-24T01:05:10;24.50;;;14.43;;
32186;SDS011;18686;53.084;8.872;2023-04-24T01:07:40;20.70;;;13.57;;
32186;SDS011;18686;53.084;8.872;2023-04-24T01:10:13;22.38;;;14.27;;
32186;SDS011;18686;53.084;8.872;2023-04-24T01:12:44;23.50;;;14.63;;
32186;SDS011;18686;53.084;8.872;2023-04-24T01:15:12;26.80;;;14.85;;
32186;SDS011;18686;53.084;8.872;2023-04-24T01:17:41;23.02;;;14.13;;
32186;SDS011;18686;53.084;8.872;2023-04-24T01:20:10;21.85;;;14.23;;
32186;SDS011;18686;53.084;8.872;2023-04-24T01:22:41;20.02;;;13.32;;
32186;SDS011;18686;53.084;8.872;2023-04-24T01:25:09;21.15;;;14.38;;
32186;SDS011;18686;53.084;8.872;2023-04-24T01:27:38;22.58;;;13.88;;
32186;SDS011;18686;53.084;8.872;2023-04-24T01:30:06;27.25;;;14.95;;
32186;SDS011;18686;53.084;8.872;2023-04-24T01:32:36;23.92;;;14.27;;
32186;SDS011;18686;53.084;8.872;2023-04-24T01:35:05;18.35;;;12.63;;
32186;SDS011;18686;53.084;8.872;2023-04-24T01:37:34;17.38;;;12.25;;
32186;SDS011;18686;53.084;8.872;2023-04-24T01:40:06;20.63;;;13.02;;
32186;SDS011;18686;53.084;8.872;2023-04-24T01:42:35;14.88;;;11.38;;
32186;SDS011;18686;53.084;8.872;2023-04-24T01:45:04;14.30;;;10.70;;
32186;SDS011;18686;53.084;8.872;2023-04-24T01:47:33;20.02;;;11.77;;
32186;SDS011;18686;53.084;8.872;2023-04-24T01:50:02;18.88;;;11.77;;
32186;SDS011;18686;53.084;8.872;2023-04-24T01:52:31;15.38;;;11.00;;
32186;SDS011;18686;53.084;8.872;2023-04-24T01:54:59;18.73;;;11.40;;
32186;SDS011;18686;53.084;8.872;2023-04-24T01:57:29;16.98;;;11.27;;
32186;SDS011;18686;53.084;8.872;2023-04-24T01:59:58;13.35;;;10.50;;
32186;SDS011;18686;53.084;8.872;2023-04-24T02:02:27;12.15;;;8.88;;
32186;SDS011;18686;53.084;8.872;2023-04-24T02:04:57;13.25;;;9.98;;
32186;SDS011;18686;53.084;8.872;2023-04-24T02:07:25;13.98;;;10.48;;
32186;SDS011;18686;53.084;8.872;2023-04-24T02:09:53;15.40;;;10.65;;
32186;SDS011;18686;53.084;8.872;2023-04-24T02:12:21;14.38;;;9.63;;
32186;SDS011;18686;53.084;8.872;2023-04-24T02:14:52;13.65;;;9.30;;
32186;SDS011;18686;53.084;8.872;2023-04-24T02:17:20;13.18;;;9.43;;
32186;SDS011;18686;53.084;8.872;2023-04-24T02:19:48;15.30;;;9.88;;
32186;SDS011;18686;53.084;8.872;2023-04-24T02:22:17;11.88;;;9.57;;
32186;SDS011;18686;53.084;8.872;2023-04-24T02:24:45;11.40;;;8.95;;
32186;SDS011;18686;53.084;8.872;2023-04-24T02:27:14;11.73;;;9.63;;
32186;SDS011;18686;53.084;8.872;2023-04-24T02:29:43;14.60;;;12.23;;
32186;SDS011;18686;53.084;8.872;2023-04-24T02:32:13;14.60;;;11.57;;
32186;SDS011;18686;53.084;8.872;2023-04-24T02:34:44;13.60;;;11.35;;
32186;SDS011;18686;53.084;8.872;2023-04-24T02:37:12;13.20;;;9.88;;
32186;SDS011;18686;53.084;8.872;2023-04-24T02:39:42;11.88;;;10.68;;
32186;SDS011;18686;53.084;8.872;2023-04-24T02:42:10;11.88;;;10.68;;
32186;SDS011;18686;53.084;8.872;2023-04-24T02:44:39;11.50;;;10.30;;
32186;SDS011;18686;53.084;8.872;2023-04-24T02:47:07;11.02;;;9.85;;
32186;SDS011;18686;53.084;8.872;2023-04-24T02:49:40;10.00;;;9.00;;
32186;SDS011;18686;53.084;8.872;2023-04-24T02:52:09;9.88;;;8.88;;
32186;SDS011;18686;53.084;8.872;2023-04-24T02:54:38;10.65;;;9.15;;
32186;SDS011;18686;53.084;8.872;2023-04-24T02:57:06;12.15;;;8.82;;
32186;SDS011;18686;53.084;8.872;2023-04-24T02:59:37;10.45;;;8.38;;
32186;SDS011;18686;53.084;8.872;2023-04-24T03:02:05;9.52;;;8.57;;
32186;SDS011;18686;53.084;8.872;2023-04-24T03:04:34;11.63;;;8.27;;
32186;SDS011;18686;53.084;8.872;2023-04-24T03:07:04;10.57;;;8.02;;
32186;SDS011;18686;53.084;8.872;2023-04-24T03:09:33;8.85;;;7.03;;
32186;SDS011;18686;53.084;8.872;2023-04-24T03:12:01;8.05;;;7.25;;
32186;SDS011;18686;53.084;8.872;2023-04-24T03:14:29;7.07;;;6.40;;
32186;SDS011;18686;53.084;8.872;2023-04-24T03:16:58;5.63;;;5.13;;
32186;SDS011;18686;53.084;8.872;2023-04-24T03:19:26;5.32;;;4.82;;
32186;SDS011;18686;53.084;8.872;2023-04-24T03:22:01;5.93;;;4.43;;
32186;SDS011;18686;53.084;8.872;2023-04-24T03:24:32;5.85;;;4.50;;
32186;SDS011;18686;53.084;8.872;2023-04-24T03:27:00;6.97;;;3.70;;
32186;SDS011;18686;53.084;8.872;2023-04-24T03:29:47;4.40;;;3.80;;
32186;SDS011;18686;53.084;8.872;2023-04-24T03:32:18;7.63;;;3.15;;
32186;SDS011;18686;53.084;8.872;2023-04-24T03:34:47;3.22;;;2.92;;
32186;SDS011;18686;53.084;8.872;2023-04-24T03:37:16;4.95;;;3.30;;
32186;SDS011;18686;53.084;8.872;2023-04-24T03:39:54;3.08;;;2.88;;
32186;SDS011;18686;53.084;8.872;2023-04-24T03:42:24;3.75;;;3.45;;
32186;SDS011;18686;53.084;8.872;2023-04-24T03:44:54;3.38;;;2.83;;
32186;SDS011;18686;53.084;8.872;2023-04-24T03:47:28;5.72;;;3.88;;
32186;SDS011;18686;53.084;8.872;2023-04-24T03:49:59;2.97;;;2.38;;
32186;SDS011;18686;53.084;8.872;2023-04-24T03:52:29;3.33;;;2.58;;
32186;SDS011;18686;53.084;8.872;2023-04-24T03:54:59;4.25;;;2.42;;
32186;SDS011;18686;53.084;8.872;2023-04-24T03:57:29;5.40;;;2.20;;
32186;SDS011;18686;53.084;8.872;2023-04-24T04:00:09;2.60;;;2.40;;
32186;SDS011;18686;53.084;8.872;2023-04-24T04:02:44;2.40;;;2.15;;
32186;SDS011;18686;53.084;8.872;2023-04-24T04:05:13;3.78;;;2.10;;
32186;SDS011;18686;53.084;8.872;2023-04-24T04:07:41;2.08;;;1.90;;
32186;SDS011;18686;53.084;8.872;2023-04-24T04:10:11;2.22;;;2.00;;
32186;SDS011;18686;53.084;8.872;2023-04-24T04:12:40;2.28;;;1.60;;
32186;SDS011;18686;53.084;8.872;2023-04-24T04:15:08;2.63;;;1.75;;
32186;SDS011;18686;53.084;8.872;2023-04-24T04:17:37;2.20;;;2.00;;
32186;SDS011;18686;53.084;8.872;2023-04-24T04:20:07;2.90;;;1.73;;
32186;SDS011;18686;53.084;8.872;2023-04-24T04:22:38;2.85;;;1.90;;
32186;SDS011;18686;53.084;8.872;2023-04-24T04:25:13;3.72;;;1.58;;
32186;SDS011;18686;53.084;8.872;2023-04-24T04:27:42;4.03;;;1.77;;
32186;SDS011;18686;53.084;8.872;2023-04-24T04:30:12;2.40;;;1.48;;
32186;SDS011;18686;53.084;8.872;2023-04-24T04:32:47;2.08;;;1.70;;
32186;SDS011;18686;53.084;8.872;2023-04-24T04:35:16;5.78;;;3.28;;
32186;SDS011;18686;53.084;8.872;2023-04-24T04:37:49;3.03;;;2.20;;
32186;SDS011;18686;53.084;8.872;2023-04-24T04:40:37;2.53;;;1.20;;
32186;SDS011;18686;53.084;8.872;2023-04-24T04:43:06;1.95;;;1.40;;
32186;SDS011;18686;53.084;8.872;2023-04-24T04:45:41;2.47;;;1.38;;
32186;SDS011;18686;53.084;8.872;2023-04-24T04:48:27;1.42;;;1.30;;
32186;SDS011;18686;53.084;8.872;2023-04-24T04:50:59;3.63;;;1.50;;
32186;SDS011;18686;53.084;8.872;2023-04-24T04:53:28;2.38;;;1.50;;
32186;SDS011;18686;53.084;8.872;2023-04-24T04:55:57;3.60;;;1.60;;
32186;SDS011;18686;53.084;8.872;2023-04-24T04:58:39;2.15;;;1.60;;
32186;SDS011;18686;53.084;8.872;2023-04-24T05:01:10;3.20;;;1.60;;
32186;SDS011;18686;53.084;8.872;2023-04-24T05:03:41;1.45;;;1.30;;
32186;SDS011;18686;53.084;8.872;2023-04-24T05:06:12;1.30;;;1.20;;
32186;SDS011;18686;53.084;8.872;2023-04-24T05:08:42;2.63;;;1.30;;
32186;SDS011;18686;53.084;8.872;2023-04-24T05:11:23;3.35;;;1.70;;
32186;SDS011;18686;53.084;8.872;2023-04-24T05:13:52;2.67;;;1.50;;
32186;SDS011;18686;53.084;8.872;2023-04-24T05:16:30;1.77;;;1.50;;
32186;SDS011;18686;53.084;8.872;2023-04-24T05:18:59;2.58;;;1.50;;
32186;SDS011;18686;53.084;8.872;2023-04-24T05:21:33;3.07;;;1.80;;
32186;SDS011;18686;53.084;8.872;2023-04-24T05:24:01;3.22;;;1.70;;
32186;SDS011;18686;53.084;8.872;2023-04-24T05:26:45;3.65;;;1.80;;
32186;SDS011;18686;53.084;8.872;2023-04-24T05:29:40;4.20;;;1.80;;
32186;SDS011;18686;53.084;8.872;2023-04-24T05:32:10;2.97;;;1.58;;
32186;SDS011;18686;53.084;8.872;2023-04-24T05:34:38;1.80;;;1.55;;
32186;SDS011;18686;53.084;8.872;2023-04-24T05:37:45;4.65;;;1.88;;
32186;SDS011;18686;53.084;8.872;2023-04-24T05:40:14;3.58;;;1.80;;
32186;SDS011;18686;53.084;8.872;2023-04-24T05:42:43;5.40;;;1.70;;
32186;SDS011;18686;53.084;8.872;2023-04-24T05:45:12;3.05;;;1.95;;
32186;SDS011;18686;53.084;8.872;2023-04-24T05:47:43;3.95;;;1.80;;
32186;SDS011;18686;53.084;8.872;2023-04-24T05:50:11;2.22;;;2.00;;
32186;SDS011;18686;53.084;8.872;2023-04-24T05:52:40;2.20;;;2.00;;
32186;SDS011;18686;53.084;8.872;2023-04-24T05:55:21;5.43;;;2.58;;
32186;SDS011;18686;53.084;8.872;2023-04-24T05:57:51;3.13;;;2.20;;
32186;SDS011;18686;53.084;8.872;2023-04-24T06:00:20;3.53;;;2.97;;
32186;SDS011;18686;53.084;8.872;2023-04-24T06:05:58;3.00;;;2.65;;
32186;SDS011;18686;53.084;8.872;2023-04-24T06:08:26;2.38;;;2.17;;
32186;SDS011;18686;53.084;8.872;2023-04-24T06:10:55;3.53;;;2.38;;
32186;SDS011;18686;53.084;8.872;2023-04-24T06:13:25;3.45;;;2.70;;
32186;SDS011;18686;53.084;8.872;2023-04-24T06:16:13;3.55;;;3.25;;
32186;SDS011;18686;53.084;8.872;2023-04-24T06:18:47;4.38;;;2.85;;
32186;SDS011;18686;53.084;8.872;2023-04-24T06:21:15;6.32;;;3.33;;
32186;SDS011;18686;53.084;8.872;2023-04-24T06:23:44;4.10;;;3.03;;
32186;SDS011;18686;53.084;8.872;2023-04-24T06:26:13;4.30;;;3.90;;
32186;SDS011;18686;53.084;8.872;2023-04-24T06:28:43;4.63;;;3.95;;
32186;SDS011;18686;53.084;8.872;2023-04-24T06:31:11;4.65;;;4.25;;
32186;SDS011;18686;53.084;8.872;2023-04-24T06:33:39;5.55;;;4.13;;
32186;SDS011;18686;53.084;8.872;2023-04-24T06:36:08;4.53;;;4.10;;
32186;SDS011;18686;53.084;8.872;2023-04-24T06:38:37;6.38;;;4.43;;
32186;SDS011;18686;53.084;8.872;2023-04-24T06:41:05;6.53;;;4.10;;
32186;SDS011;18686;53.084;8.872;2023-04-24T06:43:33;4.53;;;4.13;;
32186;SDS011;18686;53.084;8.872;2023-04-24T06:46:03;8.52;;;4.35;;
32186;SDS011;18686;53.084;8.872;2023-04-24T06:48:31;5.40;;;4.90;;
32186;SDS011;18686;53.084;8.872;2023-04-24T06:51:00;5.88;;;5.38;;
32186;SDS011;18686;53.084;8.872;2023-04-24T06:53:28;6.75;;;5.50;;
32186;SDS011;18686;53.084;8.872;2023-04-24T06:55:56;8.77;;;6.30;;
32186;SDS011;18686;53.084;8.872;2023-04-24T06:58:24;6.68;;;5.55;;
32186;SDS011;18686;53.084;8.872;2023-04-24T07:00:52;7.75;;;6.95;;
32186;SDS011;18686;53.084;8.872;2023-04-24T07:03:22;7.65;;;6.40;;
32186;SDS011;18686;53.084;8.872;2023-04-24T07:05:51;8.30;;;6.10;;
32186;SDS011;18686;53.084;8.872;2023-04-24T07:08:19;7.15;;;6.38;;
32186;SDS011;18686;53.084;8.872;2023-04-24T07:10:48;7.60;;;6.53;;
32186;SDS011;18686;53.084;8.872;2023-04-24T07:13:17;6.70;;;5.95;;
32186;SDS011;18686;53.084;8.872;2023-04-24T07:15:46;7.68;;;6.85;;
32186;SDS011;18686;53.084;8.872;2023-04-24T07:18:17;6.82;;;6.22;;
32186;SDS011;18686;53.084;8.872;2023-04-24T07:20:46;7.10;;;6.15;;
32186;SDS011;18686;53.084;8.872;2023-04-24T07:23:16;7.95;;;7.05;;
32186;SDS011;18686;53.084;8.872;2023-04-24T07:25:45;6.80;;;6.10;;
32186;SDS011;18686;53.084;8.872;2023-04-24T07:28:13;8.07;;;7.15;;
32186;SDS011;18686;53.084;8.872;2023-04-24T07:30:42;7.07;;;6.40;;
32186;SDS011;18686;53.084;8.872;2023-04-24T07:33:11;7.88;;;7.00;;
32186;SDS011;18686;53.084;8.872;2023-04-24T07:35:39;8.77;;;6.40;;
32186;SDS011;18686;53.084;8.872;2023-04-24T07:38:09;6.75;;;6.10;;
32186;SDS011;18686;53.084;8.872;2023-04-24T07:40:37;6.57;;;5.97;;
32186;SDS011;18686;53.084;8.872;2023-04-24T07:43:06;6.88;;;5.97;;
32186;SDS011;18686;53.084;8.872;2023-04-24T07:45:34;9.05;;;6.18;;
32186;SDS011;18686;53.084;8.872;2023-04-24T07:48:04;7.03;;;5.93;;
32186;SDS011;18686;53.084;8.872;2023-04-24T07:50:32;7.63;;;6.78;;
32186;SDS011;18686;53.084;8.872;2023-04-24T07:53:01;7.60;;;6.50;;
32186;SDS011;18686;53.084;8.872;2023-04-24T07:55:30;7.45;;;6.60;;
32186;SDS011;18686;53.084;8.872;2023-04-24T07:57:58;5.88;;;4.85;;
32186;SDS011;18686;53.084;8.872;2023-04-24T08:00:26;7.32;;;5.47;;
32186;SDS011;18686;53.084;8.872;2023-04-24T08:02:55;7.93;;;5.20;;
32186;SDS011;18686;53.084;8.872;2023-04-24T08:05:23;7.53;;;5.40;;
32186;SDS011;18686;53.084;8.872;2023-04-24T08:07:54;6.78;;;5.53;;
32186;SDS011;18686;53.084;8.872;2023-04-24T08:10:22;8.23;;;5.85;;
32186;SDS011;18686;53.084;8.872;2023-04-24T08:12:52;11.50;;;6.80;;
32186;SDS011;18686;53.084;8.872;2023-04-24T08:15:22;9.38;;;7.22;;
32186;SDS011;18686;53.084;8.872;2023-04-24T08:17:53;9.48;;;7.35;;
32186;SDS011;18686;53.084;8.872;2023-04-24T08:20:24;6.63;;;5.63;;
32186;SDS011;18686;53.084;8.872;2023-04-24T08:22:53;9.20;;;5.40;;
32186;SDS011;18686;53.084;8.872;2023-04-24T08:25:22;8.32;;;6.10;;
32186;SDS011;18686;53.084;8.872;2023-04-24T08:27:52;7.82;;;5.65;;
32186;SDS011;18686;53.084;8.872;2023-04-24T08:30:20;10.63;;;5.65;;
32186;SDS011;18686;53.084;8.872;2023-04-24T08:32:49;7.20;;;5.78;;
32186;SDS011;18686;53.084;8.872;2023-04-24T08:35:17;7.53;;;6.22;;
32186;SDS011;18686;53.084;8.872;2023-04-24T08:37:46;6.85;;;6.18;;
32186;SDS011;18686;53.084;8.872;2023-04-24T08:40:14;8.77;;;6.25;;
32186;SDS011;18686;53.084;8.872;2023-04-24T08:42:44;8.02;;;6.80;;
32186;SDS011;18686;53.084;8.872;2023-04-24T08:45:14;9.38;;;6.43;;
32186;SDS011;18686;53.084;8.872;2023-04-24T08:47:42;7.72;;;6.47;;
32186;SDS011;18686;53.084;8.872;2023-04-24T08:50:11;8.43;;;7.00;;
32186;SDS011;18686;53.084;8.872;2023-04-24T08:52:39;11.93;;;7.35;;
32186;SDS011;18686;53.084;8.872;2023-04-24T08:55:09;8.73;;;6.82;;
32186;SDS011;18686;53.084;8.872;2023-04-24T08:57:38;11.52;;;7.53;;
32186;SDS011;18686;53.084;8.872;2023-04-24T09:00:07;10.52;;;7.43;;
32186;SDS011;18686;53.084;8.872;2023-04-24T09:02:40;9.30;;;7.18;;
32186;SDS011;18686;53.084;8.872;2023-04-24T09:05:11;10.88;;;7.80;;
32186;SDS011;18686;53.084;8.872;2023-04-24T09:07:41;11.30;;;7.05;;
32186;SDS011;18686;53.084;8.872;2023-04-24T09:10:12;13.10;;;7.85;;
32186;SDS011;18686;53.084;8.872;2023-04-24T09:12:41;11.48;;;8.18;;
32186;SDS011;18686;53.084;8.872;2023-04-24T09:15:11;9.40;;;7.18;;
32186;SDS011;18686;53.084;8.872;2023-04-24T09:17:41;11.50;;;9.55;;
32186;SDS011;18686;53.084;8.872;2023-04-24T09:20:10;13.35;;;10.40;;
32186;SDS011;18686;53.084;8.872;2023-04-24T09:22:40;13.40;;;10.43;;
32186;SDS011;18686;53.084;8.872;2023-04-24T09:25:09;14.65;;;10.23;;
32186;SDS011;18686;53.084;8.872;2023-04-24T09:27:41;14.77;;;10.45;;
32186;SDS011;18686;53.084;8.872;2023-04-24T09:30:10;14.95;;;9.38;;
32186;SDS011;18686;53.084;8.872;2023-04-24T09:32:41;10.82;;;8.50;;
32186;SDS011;18686;53.084;8.872;2023-04-24T09:35:10;14.00;;;9.43;;
32186;SDS011;18686;53.084;8.872;2023-04-24T09:37:40;12.32;;;9.52;;
32186;SDS011;18686;53.084;8.872;2023-04-24T09:40:14;10.45;;;9.27;;
32186;SDS011;18686;53.084;8.872;2023-04-24T09:42:44;11.38;;;8.18;;
32186;SDS011;18686;53.084;8.872;2023-04-24T09:45:13;11.40;;;8.38;;
32186;SDS011;18686;53.084;8.872;2023-04-24T09:47:43;10.68;;;9.20;;
32186;SDS011;18686;53.084;8.872;2023-04-24T09:50:12;12.75;;;8.40;;
32186;SDS011;18686;53.084;8.872;2023-04-24T09:52:43;10.98;;;8.60;;
32186;SDS011;18686;53.084;8.872;2023-04-24T09:55:13;9.75;;;8.50;;
32186;SDS011;18686;53.084;8.872;2023-04-24T09:57:51;13.70;;;8.38;;
32186;SDS011;18686;53.084;8.872;2023-04-24T10:00:24;8.93;;;7.93;;
32186;SDS011;18686;53.084;8.872;2023-04-24T10:02:55;9.20;;;8.15;;
32186;SDS011;18686;53.084;8.872;2023-04-24T10:05:26;9.52;;;7.95;;
32186;SDS011;18686;53.084;8.872;2023-04-24T10:08:00;11.80;;;8.52;;
32186;SDS011;18686;53.084;8.872;2023-04-24T10:12:58;10.10;;;7.88;;
32186;SDS011;18686;53.084;8.872;2023-04-24T10:15:26;10.65;;;7.97;;
32186;SDS011;18686;53.084;8.872;2023-04-24T10:17:57;9.48;;;6.88;;
32186;SDS011;18686;53.084;8.872;2023-04-24T10:20:27;8.00;;;7.20;;
32186;SDS011;18686;53.084;8.872;2023-04-24T10:22:57;10.13;;;7.25;;
32186;SDS011;18686;53.084;8.872;2023-04-24T10:25:26;6.95;;;6.25;;
32186;SDS011;18686;53.084;8.872;2023-04-24T10:27:56;8.27;;;6.85;;
32186;SDS011;18686;53.084;8.872;2023-04-24T10:30:26;8.35;;;7.30;;
32186;SDS011;18686;53.084;8.872;2023-04-24T10:32:56;7.25;;;6.50;;
32186;SDS011;18686;53.084;8.872;2023-04-24T10:35:24;8.32;;;6.43;;
32186;SDS011;18686;53.084;8.872;2023-04-24T10:37:54;7.93;;;6.65;;
32186;SDS011;18686;53.084;8.872;2023-04-24T10:40:29;7.68;;;6.85;;
32186;SDS011;18686;53.084;8.872;2023-04-24T10:42:59;7.10;;;6.13;;
32186;SDS011;18686;53.084;8.872;2023-04-24T10:45:32;7.95;;;6.65;;
32186;SDS011;18686;53.084;8.872;2023-04-24T10:48:04;7.28;;;6.60;;
32186;SDS011;18686;53.084;8.872;2023-04-24T10:50:44;6.55;;;5.95;;
32186;SDS011;18686;53.084;8.872;2023-04-24T10:53:14;6.47;;;5.88;;
32186;SDS011;18686;53.084;8.872;2023-04-24T10:55:44;7.38;;;6.22;;
32186;SDS011;18686;53.084;8.872;2023-04-24T10:58:14;6.45;;;5.85;;
32186;SDS011;18686;53.084;8.872;2023-04-24T11:00:43;8.48;;;5.63;;
32186;SDS011;18686;53.084;8.872;2023-04-24T11:03:26;6.03;;;5.38;;
32186;SDS011;18686;53.084;8.872;2023-04-24T11:05:56;5.93;;;5.32;;
32186;SDS011;18686;53.084;8.872;2023-04-24T11:08:29;6.55;;;5.75;;
32186;SDS011;18686;53.084;8.872;2023-04-24T11:11:00;6.13;;;5.00;;
32186;SDS011;18686;53.084;8.872;2023-04-24T11:16:32;5.10;;;4.60;;
32186;SDS011;18686;53.084;8.872;2023-04-24T11:19:04;6.32;;;4.30;;
32186;SDS011;18686;53.084;8.872;2023-04-24T11:21:40;5.55;;;5.05;;
32186;SDS011;18686;53.084;8.872;2023-04-24T11:24:26;6.03;;;4.93;;
32186;SDS011;18686;53.084;8.872;2023-04-24T11:26:59;5.88;;;4.28;;
32186;SDS011;18686;53.084;8.872;2023-04-24T11:29:40;5.15;;;4.38;;
32186;SDS011;18686;53.084;8.872;2023-04-24T11:32:16;5.90;;;4.20;;
32186;SDS011;18686;53.084;8.872;2023-04-24T11:34:48;4.55;;;4.15;;
32186;SDS011;18686;53.084;8.872;2023-04-24T11:37:17;6.13;;;3.90;;
32186;SDS011;18686;53.084;8.872;2023-04-24T11:39:46;4.05;;;3.65;;
32186;SDS011;18686;53.084;8.872;2023-04-24T11:42:14;3.67;;;3.35;;
32186;SDS011;18686;53.084;8.872;2023-04-24T11:44:43;4.15;;;3.60;;
32186;SDS011;18686;53.084;8.872;2023-04-24T11:47:13;4.63;;;3.45;;
32186;SDS011;18686;53.084;8.872;2023-04-24T11:49:41;3.83;;;3.42;;
32186;SDS011;18686;53.084;8.872;2023-04-24T11:52:16;3.92;;;3.53;;
32186;SDS011;18686;53.084;8.872;2023-04-24T11:54:48;4.63;;;4.22;;
32186;SDS011;18686;53.084;8.872;2023-04-24T11:57:19;5.00;;;4.60;;
32186;SDS011;18686;53.084;8.872;2023-04-24T11:59:49;8.05;;;4.30;;
32186;SDS011;18686;53.084;8.872;2023-04-24T12:02:21;4.68;;;4.25;;
32186;SDS011;18686;53.084;8.872;2023-04-24T12:04:51;4.60;;;4.20;;
32186;SDS011;18686;53.084;8.872;2023-04-24T12:07:22;4.28;;;3.85;;
32186;SDS011;18686;53.084;8.872;2023-04-24T12:09:54;4.47;;;4.07;;
32186;SDS011;18686;53.084;8.872;2023-04-24T12:12:25;4.93;;;4.40;;
32186;SDS011;18686;53.084;8.872;2023-04-24T12:14:54;5.03;;;4.60;;
32186;SDS011;18686;53.084;8.872;2023-04-24T12:17:24;6.53;;;4.72;;
32186;SDS011;18686;53.084;8.872;2023-04-24T12:19:57;6.63;;;4.40;;
32186;SDS011;18686;53.084;8.872;2023-04-24T12:22:42;4.82;;;4.43;;
32186;SDS011;18686;53.084;8.872;2023-04-24T12:27:40;5.18;;;4.78;;
32186;SDS011;18686;53.084;8.872;2023-04-24T12:30:10;5.25;;;4.85;;
32186;SDS011;18686;53.084;8.872;2023-04-24T12:32:41;5.07;;;4.63;;
32186;SDS011;18686;53.084;8.872;2023-04-24T12:35:10;5.57;;;4.20;;
32186;SDS011;18686;53.084;8.872;2023-04-24T12:37:41;5.03;;;4.63;;
32186;SDS011;18686;53.084;8.872;2023-04-24T12:40:13;5.20;;;4.70;;
32186;SDS011;18686;53.084;8.872;2023-04-24T12:42:42;6.97;;;4.32;;
32186;SDS011;18686;53.084;8.872;2023-04-24T12:45:11;4.07;;;3.78;;
32186;SDS011;18686;53.084;8.872;2023-04-24T12:47:41;4.80;;;4.40;;
32186;SDS011;18686;53.084;8.872;2023-04-24T12:50:10;6.78;;;6.18;;
32186;SDS011;18686;53.084;8.872;2023-04-24T12:52:41;7.03;;;6.43;;
32186;SDS011;18686;53.084;8.872;2023-04-24T12:55:09;9.10;;;7.45;;
32186;SDS011;18686;53.084;8.872;2023-04-24T12:57:38;8.73;;;8.02;;
32186;SDS011;18686;53.084;8.872;2023-04-24T13:00:07;8.75;;;7.95;;
32186;SDS011;18686;53.084;8.872;2023-04-24T13:02:36;8.55;;;7.72;;
32186;SDS011;18686;53.084;8.872;2023-04-24T13:05:05;9.98;;;9.02;;
32186;SDS011;18686;53.084;8.872;2023-04-24T13:07:33;10.70;;;9.60;;
32186;SDS011;18686;53.084;8.872;2023-04-24T13:10:03;10.23;;;9.20;;
32186;SDS011;18686;53.084;8.872;2023-04-24T13:12:32;8.57;;;6.90;;
32186;SDS011;18686;53.084;8.872;2023-04-24T13:15:00;7.55;;;6.35;;
32186;SDS011;18686;53.084;8.872;2023-04-24T13:17:28;7.40;;;5.93;;
32186;SDS011;18686;53.084;8.872;2023-04-24T13:19:56;11.77;;;8.55;;
32186;SDS011;18686;53.084;8.872;2023-04-24T13:22:26;17.27;;;12.65;;
32186;SDS011;18686;53.084;8.872;2023-04-24T13:24:55;20.55;;;14.70;;
32186;SDS011;18686;53.084;8.872;2023-04-24T13:27:24;19.35;;;13.55;;
32186;SDS011;18686;53.084;8.872;2023-04-24T13:29:53;23.67;;;13.98;;
32186;SDS011;18686;53.084;8.872;2023-04-24T13:32:21;23.48;;;14.23;;
32186;SDS011;18686;53.084;8.872;2023-04-24T13:34:49;19.33;;;14.02;;
32186;SDS011;18686;53.084;8.872;2023-04-24T13:37:17;20.90;;;15.63;;
32186;SDS011;18686;53.084;8.872;2023-04-24T13:39:46;22.17;;;15.95;;
32186;SDS011;18686;53.084;8.872;2023-04-24T13:42:14;18.67;;;13.68;;
32186;SDS011;18686;53.084;8.872;2023-04-24T13:44:43;22.30;;;13.38;;
32186;SDS011;18686;53.084;8.872;2023-04-24T13:47:11;22.35;;;14.18;;
32186;SDS011;18686;53.084;8.872;2023-04-24T13:49:39;21.98;;;14.40;;
32186;SDS011;18686;53.084;8.872;2023-04-24T13:52:08;20.90;;;13.38;;
32186;SDS011;18686;53.084;8.872;2023-04-24T13:54:37;21.17;;;14.68;;
32186;SDS011;18686;53.084;8.872;2023-04-24T13:57:05;28.00;;;14.68;;
32186;SDS011;18686;53.084;8.872;2023-04-24T13:59:33;25.33;;;14.30;;
32186;SDS011;18686;53.084;8.872;2023-04-24T14:02:03;33.88;;;16.38;;
32186;SDS011;18686;53.084;8.872;2023-04-24T14:04:31;23.10;;;16.73;;
32186;SDS011;18686;53.084;8.872;2023-04-24T14:06:59;31.23;;;18.15;;
32186;SDS011;18686;53.084;8.872;2023-04-24T14:09:27;33.40;;;16.73;;
32186;SDS011;18686;53.084;8.872;2023-04-24T14:11:56;29.88;;;16.98;;
32186;SDS011;18686;53.084;8.872;2023-04-24T14:14:24;30.33;;;15.70;;
32186;SDS011;18686;53.084;8.872;2023-04-24T14:16:52;29.17;;;17.10;;
32186;SDS011;18686;53.084;8.872;2023-04-24T14:19:22;38.13;;;17.42;;
32186;SDS011;18686;53.084;8.872;2023-04-24T14:21:50;28.20;;;16.05;;
32186;SDS011;18686;53.084;8.872;2023-04-24T14:24:18;26.83;;;15.18;;
32186;SDS011;18686;53.084;8.872;2023-04-24T14:26:46;32.40;;;15.27;;
32186;SDS011;18686;53.084;8.872;2023-04-24T14:29:15;27.60;;;14.82;;
32186;SDS011;18686;53.084;8.872;2023-04-24T14:31:43;28.00;;;14.68;;
32186;SDS011;18686;53.084;8.872;2023-04-24T14:34:12;33.17;;;14.40;;
32186;SDS011;18686;53.084;8.872;2023-04-24T14:36:43;22.33;;;13.90;;
32186;SDS011;18686;53.084;8.872;2023-04-24T14:39:11;31.58;;;16.38;;
32186;SDS011;18686;53.084;8.872;2023-04-24T14:41:39;29.15;;;15.98;;
32186;SDS011;18686;53.084;8.872;2023-04-24T14:44:26;27.85;;;14.55;;
32186;SDS011;18686;53.084;8.872;2023-04-24T14:46:54;39.40;;;16.35;;
32186;SDS011;18686;53.084;8.872;2023-04-24T14:49:22;42.50;;;16.38;;
32186;SDS011;18686;53.084;8.872;2023-04-24T14:51:52;31.38;;;15.18;;
32186;SDS011;18686;53.084;8.872;2023-04-24T14:54:20;42.10;;;18.63;;
32186;SDS011;18686;53.084;8.872;2023-04-24T14:56:50;41.22;;;19.77;;
32186;SDS011;18686;53.084;8.872;2023-04-24T14:59:18;35.28;;;15.25;;
32186;SDS011;18686;53.084;8.872;2023-04-24T15:01:47;36.60;;;15.13;;
32186;SDS011;18686;53.084;8.872;2023-04-24T15:04:24;31.70;;;13.80;;
32186;SDS011;18686;53.084;8.872;2023-04-24T15:06:54;37.53;;;15.80;;